createdAt,value
2019-05-28T00:01:55.835Z,71.69
2019-05-28T00:04:26.708Z,71.80
2019-05-28T00:06:55.855Z,71.73
2019-05-28T00:09:25.611Z,71.76
2019-05-28T00:11:55.060Z,71.87
2019-05-28T00:14:24.305Z,72.03
2019-05-28T00:16:53.074Z,72.41
2019-05-28T00:19:21.964Z,72.35
2019-05-28T00:21:50.862Z,72.75
2019-05-28T00:24:21.077Z,74.00
2019-05-28T00:26:49.864Z,72.89
2019-05-28T00:29:18.652Z,71.50
2019-05-28T00:31:47.543Z,72.36
2019-05-28T00:34:17.971Z,73.19
2019-05-28T00:36:46.865Z,72.09
2019-05-28T00:39:15.753Z,72.20
2019-05-28T00:41:44.644Z,72.41
2019-05-28T00:44:13.536Z,72.71
2019-05-28T00:46:42.324Z,73.00
2019-05-28T00:49:12.445Z,72.91
2019-05-28T00:51:43.134Z,73.20
2019-05-28T00:54:12.685Z,72.90
2019-05-28T00:56:42.005Z,72.81
2019-05-28T00:59:11.389Z,72.65
2019-05-28T01:01:40.280Z,74.93
2019-05-28T01:04:09.797Z,72.88
2019-05-28T01:06:38.676Z,72.83
2019-05-28T01:09:08.759Z,73.36
2019-05-28T01:11:37.687Z,73.30
2019-05-28T01:14:06.682Z,73.84
2019-05-28T01:16:35.572Z,75.51
2019-05-28T01:19:04.567Z,74.71
2019-05-28T01:21:34.071Z,74.26
2019-05-28T01:24:02.964Z,73.57
2019-05-28T01:26:31.754Z,74.33
2019-05-28T01:29:00.561Z,74.95
2019-05-28T01:31:29.431Z,73.87
2019-05-28T01:33:58.461Z,74.15
2019-05-28T01:36:27.318Z,76.83
2019-05-28T01:38:56.208Z,76.41
2019-05-28T01:41:25.099Z,76.06
2019-05-28T01:43:53.992Z,75.73
2019-05-28T01:46:23.188Z,75.94
2019-05-28T01:48:52.081Z,78.16
2019-05-28T01:51:20.932Z,78.59
2019-05-28T01:53:49.862Z,78.09
2019-05-28T01:56:18.650Z,80.56
2019-05-28T01:58:47.442Z,81.43
2019-05-28T02:01:16.330Z,80.38
2019-05-28T02:03:45.222Z,80.44
2019-05-28T02:06:14.011Z,81.17
2019-05-28T02:08:42.902Z,81.16
2019-05-28T02:11:12.099Z,82.71
2019-05-28T02:13:40.999Z,83.47
2019-05-28T02:16:11.713Z,81.71
2019-05-28T02:18:40.653Z,81.23
2019-05-28T02:21:09.816Z,80.75
2019-05-28T02:23:38.706Z,80.29
2019-05-28T02:26:09.236Z,79.58
2019-05-28T02:28:38.101Z,79.84
2019-05-28T02:31:07.307Z,80.37
2019-05-28T02:33:36.218Z,81.89
2019-05-28T02:36:05.112Z,80.70
2019-05-28T02:38:34.005Z,80.68
2019-05-28T02:41:02.891Z,80.69
2019-05-28T02:43:31.885Z,80.83
2019-05-28T02:46:00.664Z,81.09
2019-05-28T02:48:29.464Z,80.28
2019-05-28T02:51:00.391Z,80.01
2019-05-28T02:53:30.988Z,80.74
2019-05-28T02:56:00.951Z,79.87
2019-05-28T02:58:34.788Z,78.99
2019-05-28T03:01:05.370Z,79.27
2019-05-28T03:03:34.492Z,80.00
2019-05-28T03:06:06.445Z,79.74
2019-05-28T03:08:35.543Z,79.70
2019-05-28T03:11:04.913Z,80.12
2019-05-28T03:13:34.060Z,80.07
2019-05-28T03:16:04.726Z,80.35
2019-05-28T03:18:36.418Z,80.11
2019-05-28T03:21:06.598Z,79.50
2019-05-28T03:23:38.647Z,81.44
2019-05-28T03:26:08.654Z,80.72
2019-05-28T03:28:37.614Z,80.64
2019-05-28T03:31:07.630Z,79.63
2019-05-28T03:33:36.539Z,81.13
2019-05-28T03:36:06.862Z,80.69
2019-05-28T03:38:37.342Z,84.04
2019-05-28T03:41:06.181Z,84.83
2019-05-28T03:43:35.076Z,82.86
2019-05-28T03:46:04.106Z,81.04
2019-05-28T03:48:32.959Z,83.18
2019-05-28T03:51:01.850Z,83.10
2019-05-28T03:53:30.739Z,81.58
2019-05-28T03:55:59.532Z,83.69
2019-05-28T03:58:28.319Z,84.71
2019-05-28T04:00:57.209Z,85.24
2019-05-28T04:03:26.102Z,84.32
2019-05-28T04:05:54.993Z,83.38
2019-05-28T04:08:23.884Z,83.60
2019-05-28T04:10:52.775Z,81.97
2019-05-28T04:13:21.666Z,81.59
2019-05-28T04:15:50.564Z,84.70
2019-05-28T04:18:19.449Z,83.63
2019-05-28T04:20:48.347Z,84.50
2019-05-28T04:23:17.690Z,84.98
2019-05-28T04:25:47.719Z,85.04
2019-05-28T04:28:16.555Z,84.58
2019-05-28T04:30:45.562Z,85.26
2019-05-28T04:33:14.445Z,84.81
2019-05-28T04:35:43.325Z,83.97
2019-05-28T04:38:12.523Z,84.75
2019-05-28T04:40:41.416Z,84.48
2019-05-28T04:43:10.613Z,84.96
2019-05-28T04:45:39.503Z,85.31
2019-05-28T04:48:08.466Z,86.29
2019-05-28T04:50:37.388Z,85.72
2019-05-28T04:53:06.810Z,85.73
2019-05-28T04:55:35.690Z,86.82
2019-05-28T04:58:04.573Z,86.36
2019-05-28T05:00:33.465Z,87.37
2019-05-28T05:03:02.366Z,88.82
2019-05-28T05:05:31.275Z,89.13
2019-05-28T05:08:00.141Z,89.06
2019-05-28T05:10:29.030Z,89.04
2019-05-28T05:12:57.920Z,89.36
2019-05-28T05:15:26.812Z,89.47
2019-05-28T05:17:55.703Z,89.71
2019-05-28T05:20:24.612Z,85.88
2019-05-28T05:22:53.589Z,86.27
2019-05-28T05:25:22.584Z,86.33
2019-05-28T05:27:51.505Z,85.80
2019-05-28T05:30:20.909Z,85.36
2019-05-28T05:32:49.768Z,85.73
2019-05-28T05:35:18.866Z,85.59
2019-05-28T05:37:47.756Z,83.92
2019-05-28T05:40:17.340Z,84.23
2019-05-28T05:42:46.355Z,83.02
2019-05-28T05:45:15.635Z,83.48
2019-05-28T05:47:45.777Z,82.28
2019-05-28T05:50:16.226Z,81.80
2019-05-28T05:52:45.108Z,81.59
2019-05-28T05:55:15.585Z,81.90
2019-05-28T05:57:44.413Z,81.45
2019-05-28T06:00:14.961Z,81.96
2019-05-28T06:02:43.839Z,82.01
2019-05-28T06:05:13.853Z,82.09
2019-05-28T06:07:42.756Z,82.70
2019-05-28T06:10:12.046Z,81.89
2019-05-28T06:12:40.940Z,81.39
2019-05-28T06:15:10.114Z,81.08
2019-05-28T06:17:38.922Z,81.18
2019-05-28T06:20:09.331Z,81.05
2019-05-28T06:22:38.241Z,80.83
2019-05-28T06:25:08.126Z,81.33
2019-05-28T06:27:37.049Z,80.27
2019-05-28T06:30:08.143Z,80.71
2019-05-28T06:32:38.186Z,79.97
2019-05-28T06:35:07.822Z,80.73
2019-05-28T06:37:36.707Z,80.01
2019-05-28T06:40:07.904Z,79.41
2019-05-28T06:42:39.614Z,80.74
2019-05-28T06:45:09.028Z,80.96
2019-05-28T06:47:38.007Z,81.57
2019-05-28T06:50:12.022Z,81.64
2019-05-28T06:52:41.628Z,82.13
2019-05-28T06:55:11.546Z,81.98
2019-05-28T06:57:40.433Z,81.88
2019-05-28T07:00:10.632Z,81.93
2019-05-28T07:02:39.656Z,80.58
2019-05-28T07:05:08.952Z,80.73
2019-05-28T07:07:38.040Z,79.25
2019-05-28T07:10:09.679Z,79.25
2019-05-28T07:12:38.696Z,79.43
2019-05-28T07:15:08.180Z,79.23
2019-05-28T07:17:36.993Z,80.33
2019-05-28T07:20:07.638Z,80.39
2019-05-28T07:22:36.516Z,81.54
2019-05-28T07:25:07.249Z,81.76
2019-05-28T07:27:36.242Z,80.74
2019-05-28T07:30:09.480Z,79.35
2019-05-28T07:32:38.333Z,78.64
2019-05-28T07:35:07.501Z,80.34
2019-05-28T07:37:36.312Z,80.79
2019-05-28T07:40:09.540Z,81.01
2019-05-28T07:42:38.403Z,81.36
2019-05-28T07:45:09.005Z,80.17
2019-05-28T07:47:37.828Z,81.67
2019-05-28T07:50:09.870Z,80.67
2019-05-28T07:52:38.775Z,81.69
2019-05-28T07:55:08.185Z,81.28
2019-05-28T07:57:37.067Z,79.18
2019-05-28T08:00:07.750Z,73.82
2019-05-28T08:02:36.795Z,73.06
2019-05-28T08:05:09.320Z,75.10
2019-05-28T08:07:38.265Z,74.58
2019-05-28T08:10:08.620Z,72.92
2019-05-28T08:12:37.638Z,73.39
2019-05-28T08:15:07.808Z,73.03
2019-05-28T08:17:36.775Z,71.88
2019-05-28T08:20:06.759Z,72.38
2019-05-28T08:22:42.137Z,72.38
2019-05-28T08:25:23.584Z,71.45
2019-05-28T08:27:37.587Z,71.52
2019-05-28T08:30:08.136Z,74.38
2019-05-28T08:32:37.010Z,70.16
2019-05-28T08:35:07.378Z,70.16
2019-05-28T08:37:36.326Z,67.35
2019-05-28T08:40:07.064Z,67.64
2019-05-28T08:42:36.054Z,69.03
2019-05-28T08:45:06.542Z,65.82
2019-05-28T08:47:35.519Z,66.42
2019-05-28T08:50:06.101Z,70.59
2019-05-28T08:52:35.003Z,67.18
2019-05-28T08:55:04.783Z,66.60
2019-05-28T08:57:37.240Z,65.19
2019-05-28T09:00:11.510Z,64.28
2019-05-28T09:02:40.392Z,63.75
2019-05-28T09:05:25.101Z,63.33
2019-05-28T09:07:40.941Z,63.16
2019-05-28T09:10:10.407Z,65.55
2019-05-28T09:12:39.343Z,63.29
2019-05-28T09:15:08.923Z,65.97
2019-05-28T09:17:39.285Z,67.00
2019-05-28T09:20:08.881Z,65.91
2019-05-28T09:22:37.771Z,65.96
2019-05-28T09:25:07.169Z,66.97
2019-05-28T09:27:35.964Z,67.75
2019-05-28T09:30:07.720Z,68.44
2019-05-28T09:32:36.641Z,70.28
2019-05-28T09:35:09.572Z,70.76
2019-05-28T09:37:38.507Z,69.92
2019-05-28T09:40:08.181Z,71.57
2019-05-28T09:42:37.197Z,73.17
2019-05-28T09:45:21.743Z,73.22
2019-05-28T09:47:38.049Z,73.23
2019-05-28T09:50:26.931Z,74.76
2019-05-28T09:52:52.946Z,76.44
2019-05-28T09:55:10.063Z,78.24
2019-05-28T09:57:47.314Z,79.60
2019-05-28T10:00:17.350Z,81.44
2019-05-28T10:02:46.349Z,80.62
2019-05-28T10:05:15.647Z,81.83
2019-05-28T10:07:44.536Z,85.61
2019-05-28T10:10:13.633Z,84.96
2019-05-28T10:12:42.637Z,84.96
2019-05-28T10:15:12.627Z,85.04
2019-05-28T10:17:41.433Z,84.80
2019-05-28T10:20:12.224Z,83.18
2019-05-28T10:22:41.161Z,82.67
2019-05-28T10:25:11.181Z,82.98
2019-05-28T10:27:58.497Z,83.18
2019-05-28T10:30:14.608Z,82.39
2019-05-28T10:32:43.590Z,84.01
2019-05-28T10:35:13.582Z,83.55
2019-05-28T10:37:42.404Z,83.13
2019-05-28T10:40:12.727Z,83.21
2019-05-28T10:42:43.519Z,83.02
2019-05-28T10:45:14.318Z,83.35
2019-05-28T10:47:43.189Z,82.93
2019-05-28T10:50:12.792Z,82.05
2019-05-28T10:52:41.681Z,81.98
2019-05-28T10:55:15.675Z,81.98
2019-05-28T10:57:42.777Z,82.37
2019-05-28T11:00:12.853Z,81.91
2019-05-28T11:02:41.764Z,79.38
2019-05-28T11:05:13.262Z,81.01
2019-05-28T11:07:42.093Z,80.33
2019-05-28T11:10:23.779Z,80.44
2019-05-28T11:12:43.765Z,81.19
2019-05-28T11:15:13.801Z,80.82
2019-05-28T11:17:42.674Z,80.51
2019-05-28T11:20:14.444Z,80.84
2019-05-28T11:22:43.324Z,81.49
2019-05-28T11:25:13.241Z,80.33
2019-05-28T11:27:42.130Z,80.52
2019-05-28T11:30:13.776Z,80.55
2019-05-28T11:32:44.215Z,80.54
2019-05-28T11:35:14.548Z,79.61
2019-05-28T11:37:43.433Z,79.92
2019-05-28T11:40:15.271Z,80.34
2019-05-28T11:42:45.308Z,79.71
2019-05-28T11:45:17.140Z,81.02
2019-05-28T11:47:50.184Z,79.52
2019-05-28T11:50:19.281Z,80.48
2019-05-28T11:52:48.254Z,80.21
2019-05-28T11:55:17.836Z,78.22
2019-05-28T11:57:49.408Z,78.93
2019-05-28T12:00:18.791Z,76.80
2019-05-28T12:02:47.807Z,78.65
2019-05-28T12:05:17.013Z,78.61
2019-05-28T12:07:45.894Z,79.48
2019-05-28T12:10:16.687Z,81.34
2019-05-28T12:12:45.621Z,80.04
2019-05-28T12:15:16.603Z,82.50
2019-05-28T12:17:45.830Z,79.75
2019-05-28T12:20:18.016Z,80.70
2019-05-28T12:22:47.029Z,79.96
2019-05-28T12:25:16.409Z,79.06
2019-05-28T12:27:45.216Z,78.40
2019-05-28T12:30:18.515Z,75.59
2019-05-28T12:32:47.093Z,78.02
2019-05-28T12:35:28.369Z,76.09
2019-05-28T12:37:50.458Z,78.01
2019-05-28T12:40:19.273Z,79.05
2019-05-28T12:42:48.192Z,78.41
2019-05-28T12:45:17.679Z,78.85
2019-05-28T12:48:06.995Z,80.67
2019-05-28T12:50:20.310Z,78.64
2019-05-28T12:52:48.162Z,78.30
2019-05-28T12:55:17.740Z,78.41
2019-05-28T12:57:46.656Z,79.50
2019-05-28T13:00:16.048Z,79.31
2019-05-28T13:02:44.958Z,78.41
2019-05-28T13:05:19.018Z,78.76
2019-05-28T13:08:06.372Z,78.13
2019-05-28T13:10:18.805Z,78.40
2019-05-28T13:12:47.688Z,76.45
2019-05-28T13:15:18.228Z,78.43
2019-05-28T13:17:47.110Z,76.40
2019-05-28T13:20:16.850Z,79.01
2019-05-28T13:22:46.631Z,78.94
2019-05-28T13:25:15.623Z,77.24
2019-05-28T13:27:44.511Z,77.20
2019-05-28T13:30:14.870Z,78.95
2019-05-28T13:32:44.752Z,78.36
2019-05-28T13:35:16.115Z,79.32
2019-05-28T13:37:45.002Z,78.90
2019-05-28T13:40:16.019Z,78.16
2019-05-28T13:42:44.823Z,80.14
2019-05-28T13:45:14.784Z,80.21
2019-05-28T13:47:43.629Z,80.79
2019-05-28T13:50:14.776Z,79.80
2019-05-28T13:52:43.955Z,79.99
2019-05-28T13:55:13.684Z,79.69
2019-05-28T13:57:42.882Z,79.77
2019-05-28T14:00:17.674Z,80.42
2019-05-28T14:02:46.989Z,80.51
2019-05-28T14:05:16.898Z,80.59
2019-05-28T14:07:45.919Z,79.99
2019-05-28T14:10:17.976Z,80.52
2019-05-28T14:12:48.312Z,80.25
2019-05-28T14:15:17.499Z,79.96
2019-05-28T14:17:46.312Z,79.64
2019-05-28T14:20:15.623Z,79.20
2019-05-28T14:22:44.507Z,79.32
2019-05-28T14:25:15.150Z,79.00
2019-05-28T14:27:44.126Z,78.99
2019-05-28T14:30:18.337Z,79.03
2019-05-28T14:32:47.238Z,79.67
2019-05-28T14:35:16.325Z,79.80
2019-05-28T14:37:45.213Z,80.90
2019-05-28T14:40:15.548Z,80.66
2019-05-28T14:42:44.633Z,80.24
2019-05-28T14:45:14.406Z,79.46
2019-05-28T14:47:44.776Z,79.79
2019-05-28T14:50:22.093Z,78.06
2019-05-28T14:52:52.389Z,78.40
2019-05-28T14:55:21.502Z,77.12
2019-05-28T14:57:50.471Z,77.97
2019-05-28T15:00:19.957Z,75.55
2019-05-28T15:02:49.585Z,77.07
2019-05-28T15:05:18.564Z,77.22
2019-05-28T15:07:47.371Z,77.40
2019-05-28T15:10:19.360Z,78.61
2019-05-28T15:12:48.223Z,73.22
2019-05-28T15:15:34.581Z,73.59
2019-05-28T15:17:48.259Z,74.73
2019-05-28T15:20:17.847Z,74.85
2019-05-28T15:22:46.758Z,74.66
2019-05-28T15:25:16.878Z,73.88
2019-05-28T15:27:45.807Z,75.59
2019-05-28T15:30:15.655Z,72.78
2019-05-28T15:32:44.685Z,76.92
2019-05-28T15:35:14.268Z,75.33
2019-05-28T15:37:43.129Z,74.54
2019-05-28T15:40:13.295Z,74.01
2019-05-28T15:42:42.188Z,73.67
2019-05-28T15:45:12.802Z,72.51
2019-05-28T15:47:44.787Z,73.82
2019-05-28T15:50:13.548Z,72.92
2019-05-28T15:52:42.462Z,73.39
2019-05-28T15:55:14.165Z,74.69
2019-05-28T15:57:43.083Z,75.92
2019-05-28T16:00:21.377Z,74.79
2019-05-28T16:02:50.318Z,75.83
2019-05-28T16:05:19.308Z,75.12
2019-05-28T16:07:48.099Z,75.92
2019-05-28T16:10:17.382Z,76.10
2019-05-28T16:12:46.604Z,74.29
2019-05-28T16:15:16.797Z,74.56
2019-05-28T16:17:45.609Z,74.88
2019-05-28T16:20:15.495Z,75.69
2019-05-28T16:22:44.456Z,79.21
2019-05-28T16:25:15.384Z,78.73
2019-05-28T16:27:45.855Z,78.22
2019-05-28T16:30:15.339Z,77.05
2019-05-28T16:32:44.285Z,79.59
2019-05-28T16:35:13.683Z,81.25
2019-05-28T16:37:42.573Z,83.44
2019-05-28T16:40:15.696Z,83.44
2019-05-28T16:42:42.921Z,81.15
2019-05-28T16:45:13.715Z,81.18
2019-05-28T16:47:42.546Z,80.27
2019-05-28T16:50:13.567Z,80.48
2019-05-28T16:52:42.680Z,78.89
2019-05-28T16:55:12.902Z,79.87
2019-05-28T16:57:41.792Z,79.59
2019-05-28T17:00:11.919Z,81.27
2019-05-28T17:02:41.830Z,81.67
2019-05-28T17:05:11.265Z,82.41
2019-05-28T17:07:40.123Z,81.29
2019-05-28T17:10:10.142Z,79.99
2019-05-28T17:12:39.086Z,79.67
2019-05-28T17:15:09.870Z,79.62
2019-05-28T17:17:39.069Z,79.39
2019-05-28T17:20:09.252Z,77.21
2019-05-28T17:22:38.592Z,77.60
2019-05-28T17:25:11.691Z,78.07
2019-05-28T17:27:40.470Z,78.83
2019-05-28T17:30:23.313Z,78.83
2019-05-28T17:32:40.416Z,76.93
2019-05-28T17:35:10.249Z,76.48
2019-05-28T17:37:39.213Z,75.72
2019-05-28T17:40:08.625Z,75.80
2019-05-28T17:42:37.502Z,76.38
2019-05-28T17:45:07.082Z,74.77
2019-05-28T17:47:43.127Z,75.40
2019-05-28T17:50:08.189Z,74.97
2019-05-28T17:52:37.350Z,74.89
2019-05-28T17:55:07.327Z,75.35
2019-05-28T17:57:36.384Z,75.66
2019-05-28T18:00:06.766Z,76.10
2019-05-28T18:02:35.717Z,74.98
2019-05-28T18:05:05.685Z,74.19
2019-05-28T18:07:34.606Z,74.19
2019-05-28T18:10:08.622Z,75.05
2019-05-28T18:12:37.509Z,76.68
2019-05-28T18:15:10.243Z,76.13
2019-05-28T18:17:39.088Z,76.38
2019-05-28T18:20:10.272Z,76.57
2019-05-28T18:22:41.746Z,77.71
2019-05-28T18:25:12.264Z,77.74
2019-05-28T18:27:41.099Z,78.81
2019-05-28T18:30:11.326Z,79.45
2019-05-28T18:32:40.219Z,78.63
2019-05-28T18:35:10.799Z,81.47
2019-05-28T18:37:41.628Z,80.30
2019-05-28T18:40:12.417Z,80.09
2019-05-28T18:42:46.825Z,76.51
2019-05-28T18:45:16.108Z,77.04
2019-05-28T18:47:45.235Z,78.03
2019-05-28T18:50:14.676Z,77.96
2019-05-28T18:52:45.206Z,79.55
2019-05-28T18:55:15.276Z,79.06
2019-05-28T18:57:50.373Z,80.61
2019-05-28T19:00:15.700Z,80.96
2019-05-28T19:02:44.627Z,80.22
2019-05-28T19:05:16.049Z,80.77
2019-05-28T19:07:44.878Z,83.27
2019-05-28T19:10:15.418Z,81.96
2019-05-28T19:12:44.291Z,82.05
2019-05-28T19:15:14.406Z,80.99
2019-05-28T19:17:43.300Z,81.23
2019-05-28T19:20:15.280Z,81.23
2019-05-28T19:22:44.161Z,82.42
2019-05-28T19:25:14.472Z,81.88
2019-05-28T19:27:43.415Z,81.47
2019-05-28T19:30:14.411Z,81.25
2019-05-28T19:32:44.115Z,80.92
2019-05-28T19:35:13.014Z,82.24
2019-05-28T19:37:43.607Z,83.92
2019-05-28T19:40:14.607Z,83.37
2019-05-28T19:42:43.467Z,82.36
2019-05-28T19:45:13.285Z,82.93
2019-05-28T19:47:43.302Z,82.57
2019-05-28T19:50:13.449Z,82.14
2019-05-28T19:52:42.305Z,82.69
2019-05-28T19:55:11.632Z,82.01
2019-05-28T19:57:40.506Z,82.74
2019-05-28T20:00:10.343Z,82.93
2019-05-28T20:02:39.316Z,83.07
2019-05-28T20:05:09.667Z,83.73
2019-05-28T20:07:38.527Z,82.90
2019-05-28T20:10:08.507Z,82.80
2019-05-28T20:12:37.435Z,83.30
2019-05-28T20:15:08.749Z,82.78
2019-05-28T20:17:37.736Z,83.02
2019-05-28T20:20:08.216Z,83.24
2019-05-28T20:22:37.111Z,83.04
2019-05-28T20:25:07.280Z,83.68
2019-05-28T20:27:37.743Z,82.63
2019-05-28T20:30:07.865Z,81.93
2019-05-28T20:32:36.773Z,82.49
2019-05-28T20:35:07.777Z,82.86
2019-05-28T20:37:36.688Z,82.19
2019-05-28T20:40:08.046Z,82.72
2019-05-28T20:42:37.476Z,83.14
2019-05-28T20:45:11.860Z,83.13
2019-05-28T20:47:40.445Z,82.31
2019-05-28T20:50:11.795Z,81.79
2019-05-28T20:52:40.993Z,81.97
2019-05-28T20:55:10.807Z,81.28
2019-05-28T20:57:39.712Z,82.42
2019-05-28T21:00:13.535Z,81.02
2019-05-28T21:02:42.412Z,84.22
2019-05-28T21:05:12.909Z,82.44
2019-05-28T21:07:41.812Z,83.77
2019-05-28T21:10:11.730Z,83.26
2019-05-28T21:12:44.508Z,84.83
2019-05-28T21:15:15.860Z,85.68
2019-05-28T21:17:44.139Z,86.84
2019-05-28T21:20:13.751Z,86.57
2019-05-28T21:22:42.637Z,86.63
2019-05-28T21:25:12.450Z,87.29
2019-05-28T21:27:41.347Z,86.21
2019-05-28T21:30:11.256Z,84.25
2019-05-28T21:32:40.149Z,83.62
2019-05-28T21:35:10.373Z,82.96
2019-05-28T21:37:39.259Z,83.34
2019-05-28T21:40:10.174Z,84.30
2019-05-28T21:42:39.067Z,84.98
2019-05-28T21:45:09.079Z,85.19
2019-05-28T21:47:37.897Z,82.61
2019-05-28T21:50:08.183Z,85.57
2019-05-28T21:52:37.011Z,84.56
2019-05-28T21:55:10.421Z,84.81
2019-05-28T21:57:39.297Z,84.79
2019-05-28T22:00:30.822Z,84.09
2019-05-28T22:03:00.692Z,84.11
2019-05-28T22:05:29.626Z,83.84
2019-05-28T22:07:59.432Z,84.38
2019-05-28T22:10:29.253Z,84.40
2019-05-28T22:13:12.322Z,84.27
2019-05-28T22:15:28.884Z,84.10
2019-05-28T22:17:58.020Z,84.77
2019-05-28T22:20:26.970Z,84.90
2019-05-28T22:22:56.310Z,84.82
2019-05-28T22:25:25.365Z,85.27
2019-05-28T22:27:54.160Z,84.89
2019-05-28T22:30:23.642Z,84.23
2019-05-28T22:32:52.557Z,84.19
2019-05-28T22:35:21.548Z,84.40
2019-05-28T22:37:50.437Z,85.40
2019-05-28T22:40:19.535Z,84.67
2019-05-28T22:42:48.425Z,85.30
2019-05-28T22:45:17.408Z,84.50
2019-05-28T22:47:46.209Z,84.34
2019-05-28T22:50:22.888Z,84.18
2019-05-28T22:52:47.473Z,85.30
2019-05-28T22:55:16.647Z,84.70
2019-05-28T22:57:45.460Z,83.79
2019-05-28T23:00:14.775Z,84.76
2019-05-28T23:02:43.648Z,84.52
2019-05-28T23:05:12.948Z,84.48
2019-05-28T23:07:41.838Z,84.41
2019-05-28T23:10:11.192Z,84.91
2019-05-28T23:12:40.134Z,84.53
2019-05-28T23:15:10.617Z,85.13
2019-05-28T23:17:39.457Z,84.94
2019-05-28T23:20:10.989Z,85.49
2019-05-28T23:22:40.307Z,85.50
2019-05-28T23:25:11.715Z,84.65
2019-05-28T23:27:40.644Z,85.10
2019-05-28T23:30:23.321Z,87.40
2019-05-28T23:32:41.196Z,86.90
2019-05-28T23:35:12.721Z,85.82
2019-05-28T23:37:41.645Z,85.06
2019-05-28T23:40:11.762Z,84.93
2019-05-28T23:42:40.561Z,83.56
2019-05-28T23:45:11.762Z,84.13
2019-05-28T23:47:40.793Z,83.81
2019-05-28T23:50:14.214Z,85.71
2019-05-28T23:52:40.530Z,85.08
2019-05-28T23:55:10.015Z,84.84
2019-05-28T23:57:38.817Z,84.55
